Aviation Digital Data Service (ADDS)

Output produced by TAFs form (1007 UTC 21 September 2014)
found at http://aviationweather.gov/adds/tafs/
 
KGUP 210530Z 2106/2206 16007KT P6SM BKN120 
     FM210900 VRB03KT P6SM SCT120 
     FM211700 14007KT P6SM BKN080 
     FM212100 15010KT P6SM VCSH BKN070 
     TEMPO 2122/2202 5SM -TSRA OVC035CB